createdAt,value
2017-04-06T00:00:32.387Z,0
2017-04-06T00:01:32.385Z,0
2017-04-06T00:02:32.381Z,0
2017-04-06T00:03:32.496Z,0
2017-04-06T00:04:32.470Z,0
2017-04-06T00:05:32.528Z,0
2017-04-06T00:06:32.491Z,0
2017-04-06T00:07:32.592Z,0
2017-04-06T00:08:32.581Z,0
2017-04-06T00:09:32.582Z,0
2017-04-06T00:10:32.648Z,0
2017-04-06T00:11:32.667Z,0
2017-04-06T00:12:32.702Z,0
2017-04-06T00:13:32.731Z,0
2017-04-06T00:14:32.779Z,0
2017-04-06T00:15:32.800Z,0
2017-04-06T00:16:32.821Z,0
2017-04-06T00:17:32.868Z,0
2017-04-06T00:18:32.858Z,0
2017-04-06T00:19:32.931Z,0
2017-04-06T00:20:32.886Z,0
2017-04-06T00:21:33.018Z,0
2017-04-06T00:22:32.952Z,0
2017-04-06T00:23:33.026Z,0
2017-04-06T00:24:33.026Z,0
2017-04-06T00:25:33.102Z,0
2017-04-06T00:26:33.092Z,0
2017-04-06T00:27:33.152Z,0
2017-04-06T00:28:33.165Z,0
2017-04-06T00:29:33.205Z,0
2017-04-06T00:30:33.182Z,0
2017-04-06T00:31:33.291Z,0
2017-04-06T00:32:33.315Z,0
2017-04-06T00:33:33.248Z,0
2017-04-06T00:34:33.285Z,0
2017-04-06T00:35:33.401Z,0
2017-04-06T00:36:33.376Z,0
2017-04-06T00:37:33.401Z,0
2017-04-06T00:38:33.417Z,0
2017-04-06T00:39:33.482Z,0
2017-04-06T00:40:33.501Z,0
2017-04-06T00:41:33.515Z,0
2017-04-06T00:42:33.537Z,0
2017-04-06T00:43:33.520Z,0
2017-04-06T00:44:33.584Z,0
2017-04-06T00:45:33.650Z,0
2017-04-06T00:46:33.675Z,0
2017-04-06T00:47:33.665Z,0
2017-04-06T00:48:33.693Z,0
2017-04-06T00:49:33.793Z,0
2017-04-06T00:50:33.791Z,0
2017-04-06T00:51:33.746Z,0
2017-04-06T00:52:33.784Z,0
2017-04-06T00:53:33.855Z,0
2017-04-06T00:54:33.895Z,0
2017-04-06T00:55:33.385Z,0
2017-04-06T00:56:33.381Z,0
2017-04-06T00:57:33.988Z,0
2017-04-06T00:58:33.960Z,0
2017-04-06T00:59:34.477Z,0
2017-04-06T01:00:35.017Z,0
2017-04-06T01:01:35.026Z,0
2017-04-06T01:02:35.071Z,0
2017-04-06T01:03:35.070Z,0
2017-04-06T01:04:35.630Z,0
2017-04-06T01:05:35.636Z,0
2017-04-06T01:06:35.703Z,0
2017-04-06T01:07:35.683Z,0
2017-04-06T01:08:35.705Z,0
2017-04-06T01:09:35.738Z,0
2017-04-06T01:10:35.780Z,0
2017-04-06T01:11:35.752Z,0
2017-04-06T01:12:36.276Z,0
2017-04-06T01:13:36.310Z,0
2017-04-06T01:14:36.337Z,0
2017-04-06T01:15:36.396Z,0
2017-04-06T01:16:36.390Z,0
2017-04-06T01:17:36.391Z,0
2017-04-06T01:18:36.981Z,0
2017-04-06T01:19:36.952Z,0
2017-04-06T01:20:37.472Z,0
2017-04-06T01:21:37.981Z,0
2017-04-06T01:22:38.593Z,0
2017-04-06T01:23:38.538Z,0
2017-04-06T01:24:39.097Z,0
2017-04-06T01:25:39.129Z,0
2017-04-06T01:26:39.145Z,0
2017-04-06T01:27:39.174Z,0
2017-04-06T01:28:39.194Z,0
2017-04-06T01:29:39.185Z,0
2017-04-06T01:30:39.681Z,0
2017-04-06T01:31:40.278Z,0
2017-04-06T01:32:40.286Z,0
2017-04-06T01:33:40.294Z,0
2017-04-06T01:34:40.293Z,0
2017-04-06T01:35:40.769Z,0
2017-04-06T01:36:41.303Z,0
2017-04-06T01:37:41.361Z,0
2017-04-06T01:38:41.404Z,0
2017-04-06T01:39:41.434Z,0
2017-04-06T01:40:41.368Z,0
2017-04-06T01:41:41.885Z,0
2017-04-06T01:42:42.429Z,0
2017-04-06T01:43:42.500Z,0
2017-04-06T01:44:42.502Z,0
2017-04-06T01:45:42.568Z,0
2017-04-06T01:46:42.586Z,0
2017-04-06T01:47:42.570Z,0
2017-04-06T01:48:42.576Z,0
2017-04-06T01:49:43.181Z,0
2017-04-06T01:50:43.185Z,0
2017-04-06T01:51:43.193Z,0
2017-04-06T01:52:43.165Z,0
2017-04-06T01:53:43.668Z,0
2017-04-06T01:54:44.235Z,0
2017-04-06T01:55:44.208Z,0
2017-04-06T01:56:44.775Z,0
2017-04-06T01:57:44.875Z,0
2017-04-06T01:58:44.895Z,0
2017-04-06T01:59:44.905Z,0
2017-04-06T02:00:45.166Z,0
2017-04-06T02:01:44.910Z,0
2017-04-06T02:02:44.992Z,0
2017-04-06T02:03:45.035Z,0
2017-04-06T02:04:45.053Z,0
2017-04-06T02:05:45.152Z,0
2017-04-06T02:06:45.066Z,0
2017-04-06T02:07:45.122Z,0
2017-04-06T02:08:45.110Z,0
2017-04-06T02:09:45.223Z,0
2017-04-06T02:10:45.204Z,0
2017-04-06T02:11:45.190Z,0
2017-04-06T02:12:45.184Z,0
2017-04-06T02:13:45.685Z,0
2017-04-06T02:14:46.213Z,0
2017-04-06T02:15:46.725Z,0
2017-04-06T02:16:47.278Z,0
2017-04-06T02:17:47.837Z,0
2017-04-06T02:18:47.884Z,0
2017-04-06T02:19:47.853Z,0
2017-04-06T02:20:48.384Z,0
2017-04-06T02:21:48.413Z,0
2017-04-06T02:22:48.481Z,0
2017-04-06T02:23:48.507Z,0
2017-04-06T02:24:48.479Z,0
2017-04-06T02:25:49.005Z,0
2017-04-06T02:26:49.019Z,0
2017-04-06T02:27:49.590Z,0
2017-04-06T02:28:49.537Z,0
2017-04-06T02:29:50.068Z,0
2017-04-06T02:30:50.086Z,0
2017-04-06T02:31:50.111Z,0
2017-04-06T02:32:50.204Z,0
2017-04-06T02:33:50.221Z,0
2017-04-06T02:34:50.224Z,0
2017-04-06T02:35:50.228Z,0
2017-04-06T02:36:50.205Z,0
2017-04-06T02:37:50.788Z,0
2017-04-06T02:38:50.776Z,0
2017-04-06T02:39:51.317Z,0
2017-04-06T02:40:51.314Z,0
2017-04-06T02:41:51.893Z,0
2017-04-06T02:42:51.952Z,0
2017-04-06T02:43:51.954Z,0
2017-04-06T02:44:51.962Z,0
2017-04-06T02:45:51.997Z,0
2017-04-06T02:46:52.017Z,0
2017-04-06T02:47:52.029Z,0
2017-04-06T02:48:52.563Z,0
2017-04-06T02:49:52.625Z,0
2017-04-06T02:50:52.619Z,0
2017-04-06T02:51:52.667Z,0
2017-04-06T02:52:52.692Z,0
2017-04-06T02:53:52.707Z,0
2017-04-06T02:54:52.763Z,0
2017-04-06T02:55:52.780Z,0
2017-04-06T02:56:52.832Z,0
2017-04-06T02:57:52.806Z,0
2017-04-06T02:58:53.327Z,0
2017-04-06T02:59:53.357Z,0
2017-04-06T03:00:53.456Z,0
2017-04-06T03:01:53.404Z,0
2017-04-06T03:02:53.973Z,0
2017-04-06T03:03:53.949Z,0
2017-04-06T03:04:54.575Z,0
2017-04-06T03:05:54.505Z,0
2017-04-06T03:06:55.011Z,0
2017-04-06T03:07:55.543Z,0
2017-04-06T03:08:55.570Z,0
2017-04-06T03:09:55.623Z,0
2017-04-06T03:10:55.627Z,0
2017-04-06T03:11:55.665Z,0
2017-04-06T03:12:55.682Z,0
2017-04-06T03:13:55.764Z,0
2017-04-06T03:14:55.737Z,0
2017-04-06T03:15:55.797Z,0
2017-04-06T03:16:55.785Z,0
2017-04-06T03:17:56.370Z,0
2017-04-06T03:18:56.399Z,0
2017-04-06T03:19:56.362Z,0
2017-04-06T03:20:56.916Z,0
2017-04-06T03:21:56.913Z,0
2017-04-06T03:22:56.968Z,0
2017-04-06T03:23:56.946Z,0
2017-04-06T03:24:57.484Z,0
2017-04-06T03:25:58.684Z,0
2017-04-06T03:26:58.265Z,0
2017-04-06T03:27:58.763Z,0
2017-04-06T03:28:59.324Z,0
2017-04-06T03:29:59.701Z,0
2017-04-06T03:30:59.346Z,0
2017-04-06T03:31:59.375Z,0
2017-04-06T03:32:59.388Z,0
2017-04-06T03:33:59.957Z,0
2017-04-06T03:35:00.319Z,0
2017-04-06T03:35:59.972Z,0
2017-04-06T03:37:00.411Z,0
2017-04-06T03:38:00.001Z,0
2017-04-06T03:39:00.586Z,0
2017-04-06T03:40:00.592Z,0
2017-04-06T03:41:00.604Z,0
2017-04-06T03:42:01.158Z,0
2017-04-06T03:43:01.187Z,0
2017-04-06T03:44:01.207Z,0
2017-04-06T03:45:01.217Z,0
2017-04-06T03:46:01.260Z,0
2017-04-06T03:47:01.711Z,0
2017-04-06T03:48:01.306Z,0
2017-04-06T03:49:01.382Z,0
2017-04-06T03:50:01.403Z,0
2017-04-06T03:51:01.406Z,0
2017-04-06T03:52:01.404Z,0
2017-04-06T03:53:01.950Z,0
2017-04-06T03:54:02.480Z,0
2017-04-06T03:55:02.495Z,0
2017-04-06T03:56:02.615Z,0
2017-04-06T03:57:02.595Z,0
2017-04-06T03:58:02.550Z,0
2017-04-06T03:59:03.062Z,0
2017-04-06T04:00:04.741Z,0
2017-04-06T04:01:03.136Z,0
2017-04-06T04:02:03.141Z,0
2017-04-06T04:03:03.774Z,0
2017-04-06T04:04:03.686Z,0
2017-04-06T04:05:04.289Z,0
2017-04-06T04:06:04.273Z,0
2017-04-06T04:07:04.261Z,0
2017-04-06T04:08:04.787Z,0
2017-04-06T04:09:05.385Z,0
2017-04-06T04:10:05.386Z,0
2017-04-06T04:11:05.536Z,0
2017-04-06T04:12:05.426Z,0
2017-04-06T04:13:05.522Z,0
2017-04-06T04:14:05.495Z,0
2017-04-06T04:15:05.474Z,0
2017-04-06T04:16:06.024Z,0
2017-04-06T04:17:06.009Z,0
2017-04-06T04:18:06.539Z,0
2017-04-06T04:19:07.038Z,0
2017-04-06T04:20:07.575Z,0
2017-04-06T04:21:07.999Z,0
2017-04-06T04:22:07.609Z,0
2017-04-06T04:23:07.707Z,0
2017-04-06T04:24:07.681Z,0
2017-04-06T04:25:07.700Z,5
2017-04-06T04:26:07.770Z,5
2017-04-06T04:27:07.694Z,5
2017-04-06T04:28:08.212Z,5
2017-04-06T04:29:08.355Z,5
2017-04-06T04:30:08.332Z,5
2017-04-06T04:31:08.293Z,10
2017-04-06T04:32:08.371Z,10
2017-04-06T04:33:08.369Z,10
2017-04-06T04:34:08.370Z,10
2017-04-06T04:35:09.280Z,15
2017-04-06T04:36:08.993Z,15
2017-04-06T04:37:08.969Z,15
2017-04-06T04:38:09.004Z,15
2017-04-06T04:39:08.993Z,15
2017-04-06T04:40:09.210Z,20
2017-04-06T04:41:09.112Z,20
2017-04-06T04:42:09.119Z,20
2017-04-06T04:43:09.108Z,20
2017-04-06T04:44:09.152Z,25
2017-04-06T04:45:09.301Z,30
2017-04-06T04:46:09.238Z,30
2017-04-06T04:47:09.251Z,30
2017-04-06T04:48:09.237Z,35
2017-04-06T04:49:09.813Z,35
2017-04-06T04:50:09.812Z,35
2017-04-06T04:51:09.780Z,40
2017-04-06T04:52:10.372Z,45
2017-04-06T04:53:10.371Z,45
2017-04-06T04:54:10.393Z,50
2017-04-06T04:55:10.412Z,55
2017-04-06T04:56:10.443Z,55
2017-04-06T04:57:10.461Z,60
2017-04-06T04:58:10.514Z,60
2017-04-06T04:59:10.514Z,60
2017-04-06T05:00:10.936Z,65
2017-04-06T05:01:10.557Z,65
2017-04-06T05:02:11.113Z,70
2017-04-06T05:03:11.227Z,70
2017-04-06T05:04:11.187Z,70
2017-04-06T05:05:11.206Z,75
2017-04-06T05:06:11.265Z,80
2017-04-06T05:07:11.235Z,90
2017-04-06T05:08:11.782Z,90
2017-04-06T05:09:11.803Z,95
2017-04-06T05:10:11.884Z,105
2017-04-06T05:11:11.905Z,105
2017-04-06T05:12:11.918Z,105
2017-04-06T05:13:11.945Z,110
2017-04-06T05:14:12.364Z,120
2017-04-06T05:15:12.010Z,140
2017-04-06T05:16:11.989Z,140
2017-04-06T05:17:12.075Z,140
2017-04-06T05:18:12.112Z,135
2017-04-06T05:19:12.105Z,120
2017-04-06T05:20:12.164Z,120
2017-04-06T05:21:12.202Z,120
2017-04-06T05:22:12.214Z,125
2017-04-06T05:23:12.207Z,130
2017-04-06T05:24:12.249Z,145
2017-04-06T05:25:12.404Z,145
2017-04-06T05:26:12.305Z,145
2017-04-06T05:27:12.317Z,150
2017-04-06T05:28:12.308Z,135
2017-04-06T05:29:12.424Z,130
2017-04-06T05:30:12.574Z,130
2017-04-06T05:31:12.414Z,145
2017-04-06T05:32:12.476Z,160
2017-04-06T05:33:12.520Z,170
2017-04-06T05:34:12.506Z,195
2017-04-06T05:35:12.682Z,185
2017-04-06T05:36:12.607Z,205
2017-04-06T05:37:12.619Z,180
2017-04-06T05:38:12.636Z,170
2017-04-06T05:39:12.615Z,170
2017-04-06T05:40:13.032Z,185
2017-04-06T05:41:12.719Z,210
2017-04-06T05:42:12.680Z,210
2017-04-06T05:43:12.715Z,220
2017-04-06T05:44:12.829Z,155
2017-04-06T05:45:13.232Z,175
2017-04-06T05:46:12.831Z,430
2017-04-06T05:47:12.896Z,605
2017-04-06T05:48:12.909Z,670
2017-04-06T05:49:12.909Z,225
2017-04-06T05:50:12.971Z,185
2017-04-06T05:51:13.028Z,170
2017-04-06T05:52:12.971Z,175
2017-04-06T05:53:13.018Z,200
2017-04-06T05:54:13.106Z,215
2017-04-06T05:55:13.125Z,750
2017-04-06T05:56:13.100Z,800
2017-04-06T05:57:13.167Z,850
2017-04-06T05:58:13.198Z,465
2017-04-06T05:59:13.227Z,995
2017-04-06T06:00:13.214Z,1025
2017-04-06T06:01:13.319Z,1050
2017-04-06T06:02:13.321Z,1055
2017-04-06T06:03:13.338Z,745
2017-04-06T06:04:13.323Z,1015
2017-04-06T06:05:13.390Z,1060
2017-04-06T06:06:13.449Z,1080
2017-04-06T06:07:13.433Z,1125
2017-04-06T06:08:13.501Z,1125
2017-04-06T06:09:13.525Z,1085
2017-04-06T06:10:14.284Z,1105
2017-04-06T06:11:13.510Z,1050
2017-04-06T06:12:13.617Z,1025
2017-04-06T06:13:13.646Z,1090
2017-04-06T06:14:13.725Z,465
2017-04-06T06:15:13.716Z,1095
2017-04-06T06:16:13.754Z,605
2017-04-06T06:17:13.831Z,340
2017-04-06T06:18:13.874Z,765
2017-04-06T06:19:13.883Z,395
2017-04-06T06:20:13.859Z,590
2017-04-06T06:21:13.905Z,875
2017-04-06T06:22:14.341Z,575
2017-04-06T06:23:13.919Z,555
2017-04-06T06:24:14.028Z,1335
2017-04-06T06:25:14.067Z,1310
2017-04-06T06:26:14.124Z,1410
2017-04-06T06:27:14.110Z,830
2017-04-06T06:28:14.082Z,530
2017-04-06T06:29:14.111Z,1370
2017-04-06T06:30:14.160Z,1315
2017-04-06T06:31:14.589Z,1405
2017-04-06T06:32:14.274Z,390
2017-04-06T06:33:14.286Z,1460
2017-04-06T06:34:14.359Z,505
2017-04-06T06:35:14.739Z,440
2017-04-06T06:36:14.349Z,480
2017-04-06T06:37:14.397Z,1400
2017-04-06T06:38:14.507Z,260
2017-04-06T06:39:14.526Z,315
2017-04-06T06:40:14.467Z,350
2017-04-06T06:41:14.569Z,430
2017-04-06T06:42:14.824Z,590
2017-04-06T06:43:14.613Z,785
2017-04-06T06:44:14.674Z,1590
2017-04-06T06:45:15.018Z,960
2017-04-06T06:46:14.682Z,1550
2017-04-06T06:47:14.744Z,1260
2017-04-06T06:48:14.832Z,1570
2017-04-06T06:49:14.830Z,1380
2017-04-06T06:50:14.820Z,650
2017-04-06T06:51:14.968Z,465
2017-04-06T06:52:14.891Z,1680
2017-04-06T06:53:14.964Z,530
2017-04-06T06:54:15.022Z,400
2017-04-06T06:55:15.183Z,405
2017-04-06T06:56:15.080Z,535
2017-04-06T06:57:15.055Z,1615
2017-04-06T06:58:15.087Z,1720
2017-04-06T06:59:15.132Z,1225
2017-04-06T07:00:15.572Z,495
2017-04-06T07:01:15.311Z,570
2017-04-06T07:02:15.229Z,870
2017-04-06T07:03:15.298Z,805
2017-04-06T07:04:15.332Z,625
2017-04-06T07:05:15.396Z,1700
2017-04-06T07:06:15.436Z,1790
2017-04-06T07:07:15.460Z,1820
2017-04-06T07:08:15.474Z,1875
2017-04-06T07:09:15.486Z,480
2017-04-06T07:10:15.485Z,565
2017-04-06T07:11:15.569Z,1650
2017-04-06T07:12:15.543Z,1690
2017-04-06T07:13:15.597Z,1630
2017-04-06T07:14:15.624Z,1495
2017-04-06T07:15:15.658Z,835
2017-04-06T07:16:16.096Z,1040
2017-04-06T07:17:15.731Z,635
2017-04-06T07:18:15.784Z,1455
2017-04-06T07:19:15.812Z,1760
2017-04-06T07:20:15.906Z,1775
2017-04-06T07:21:15.870Z,1825
2017-04-06T07:22:15.880Z,1865
2017-04-06T07:23:15.950Z,1930
2017-04-06T07:24:15.960Z,1755
2017-04-06T07:25:15.987Z,1730
2017-04-06T07:26:16.440Z,1655
2017-04-06T07:27:16.068Z,1855
2017-04-06T07:28:16.132Z,1965
2017-04-06T07:29:16.179Z,1610
2017-04-06T07:30:16.189Z,650
2017-04-06T07:31:16.190Z,1915
2017-04-06T07:32:16.239Z,1860
2017-04-06T07:33:16.781Z,1835
2017-04-06T07:34:16.379Z,1770
2017-04-06T07:35:16.384Z,1855
2017-04-06T07:36:16.428Z,1915
2017-04-06T07:37:16.529Z,1870
2017-04-06T07:38:16.468Z,1360
2017-04-06T07:39:16.471Z,1865
2017-04-06T07:40:16.975Z,1855
2017-04-06T07:41:16.678Z,1905
2017-04-06T07:42:16.633Z,1935
2017-04-06T07:43:16.691Z,1700
2017-04-06T07:44:16.727Z,2000
2017-04-06T07:45:16.782Z,1940
2017-04-06T07:46:16.762Z,2000
2017-04-06T07:47:16.905Z,2000
2017-04-06T07:48:16.900Z,1900
2017-04-06T07:49:16.880Z,2035
2017-04-06T07:50:16.924Z,1930
2017-04-06T07:51:17.002Z,950
2017-04-06T07:52:17.057Z,2035
2017-04-06T07:53:17.094Z,2065
2017-04-06T07:54:17.106Z,2120
2017-04-06T07:55:17.116Z,2070
2017-04-06T07:56:17.194Z,2075
2017-04-06T07:57:17.193Z,2140
2017-04-06T07:58:17.227Z,1910
2017-04-06T07:59:17.290Z,1890
2017-04-06T08:00:17.309Z,2005
2017-04-06T08:01:17.425Z,2015
2017-04-06T08:02:17.452Z,2085
2017-04-06T08:03:17.437Z,2025
2017-04-06T08:04:17.483Z,1895
2017-04-06T08:05:17.907Z,1925
2017-04-06T08:06:17.594Z,2005
2017-04-06T08:07:17.605Z,2110
2017-04-06T08:08:17.614Z,2125
2017-04-06T08:09:17.692Z,2130
2017-04-06T08:10:17.719Z,2130
2017-04-06T08:11:17.789Z,2145
2017-04-06T08:12:17.856Z,2210
2017-04-06T08:13:17.806Z,2225
2017-04-06T08:14:17.927Z,2200
2017-04-06T08:15:18.249Z,2215
2017-04-06T08:16:17.961Z,2260
2017-04-06T08:17:18.062Z,2100
2017-04-06T08:18:17.995Z,2165
2017-04-06T08:19:18.088Z,2275
2017-04-06T08:20:18.449Z,2205
2017-04-06T08:21:18.146Z,2265
2017-04-06T08:22:18.260Z,2320
2017-04-06T08:23:18.225Z,2315
2017-04-06T08:24:18.258Z,2360
2017-04-06T08:25:18.358Z,2410
2017-04-06T08:26:18.397Z,2360
2017-04-06T08:27:18.345Z,2095
2017-04-06T08:28:18.451Z,1920
2017-04-06T08:29:18.584Z,1850
2017-04-06T08:30:18.512Z,1710
2017-04-06T08:31:18.635Z,1675
2017-04-06T08:32:18.582Z,1750
2017-04-06T08:33:18.654Z,1860
2017-04-06T08:34:18.938Z,2020
2017-04-06T08:35:18.759Z,2255
2017-04-06T08:36:18.761Z,2265
2017-04-06T08:37:18.818Z,2090
2017-04-06T08:38:19.094Z,2125
2017-04-06T08:39:18.885Z,2220
2017-04-06T08:40:18.955Z,2190
2017-04-06T08:41:19.043Z,2220
2017-04-06T08:42:19.138Z,2310
2017-04-06T08:43:19.292Z,2380
2017-04-06T08:44:19.143Z,2415
2017-04-06T08:45:19.161Z,2195
2017-04-06T08:46:19.269Z,2225
2017-04-06T08:47:19.648Z,2420
2017-04-06T08:48:19.349Z,2430
2017-04-06T08:49:19.367Z,2285
2017-04-06T08:50:19.361Z,2385
2017-04-06T08:51:19.442Z,2435
2017-04-06T08:52:19.478Z,2450
2017-04-06T08:53:19.518Z,2515
2017-04-06T08:54:19.501Z,2360
2017-04-06T08:55:19.650Z,2320
2017-04-06T08:56:19.627Z,2340
2017-04-06T08:57:19.647Z,2385
2017-04-06T08:58:19.775Z,2380
2017-04-06T08:59:19.774Z,2320
2017-04-06T09:00:19.888Z,2290
2017-04-06T09:01:19.913Z,2370
2017-04-06T09:02:19.874Z,2525
2017-04-06T09:03:19.942Z,2395
2017-04-06T09:04:19.944Z,2315
2017-04-06T09:05:20.075Z,2365
2017-04-06T09:06:20.183Z,2380
2017-04-06T09:07:20.125Z,2330
2017-04-06T09:08:20.168Z,2415
2017-04-06T09:09:20.170Z,2295
2017-04-06T09:10:20.361Z,2060
2017-04-06T09:11:20.374Z,2335
2017-04-06T09:12:20.330Z,2170
2017-04-06T09:13:20.377Z,2175
2017-04-06T09:14:20.482Z,2500
2017-04-06T09:15:20.475Z,2525
2017-04-06T09:16:20.498Z,2390
2017-04-06T09:17:20.526Z,2260
2017-04-06T09:18:20.575Z,2305
2017-04-06T09:19:20.618Z,2305
2017-04-06T09:20:20.677Z,2345
2017-04-06T09:21:20.679Z,2550
2017-04-06T09:22:20.770Z,2450
2017-04-06T09:23:20.843Z,2320
2017-04-06T09:24:21.283Z,2395
2017-04-06T09:25:20.986Z,2435
2017-04-06T09:26:20.978Z,2360
2017-04-06T09:27:20.971Z,2370
2017-04-06T09:28:21.226Z,2320
2017-04-06T09:29:21.027Z,2555
2017-04-06T09:30:21.667Z,2500
2017-04-06T09:31:21.224Z,2410
2017-04-06T09:32:21.182Z,2605
2017-04-06T09:33:21.286Z,2515
2017-04-06T09:34:21.270Z,2495
2017-04-06T09:35:21.897Z,2575
2017-04-06T09:36:21.412Z,2720
2017-04-06T09:37:21.410Z,2645
2017-04-06T09:38:21.690Z,2460
2017-04-06T09:39:21.643Z,2465
2017-04-06T09:40:21.562Z,2510
2017-04-06T09:41:21.686Z,2515
2017-04-06T09:42:21.601Z,2810
2017-04-06T09:43:21.717Z,2930
2017-04-06T09:44:21.729Z,2720
2017-04-06T09:45:21.973Z,2765
2017-04-06T09:46:21.869Z,2865
2017-04-06T09:47:21.867Z,3005
2017-04-06T09:48:21.885Z,3040
2017-04-06T09:49:21.985Z,3245
2017-04-06T09:50:22.215Z,2825
2017-04-06T09:51:22.124Z,2755
2017-04-06T09:52:22.177Z,2650
2017-04-06T09:53:22.177Z,2170
2017-04-06T09:54:22.212Z,1970
2017-04-06T09:55:22.669Z,1700
2017-04-06T09:56:22.263Z,1415
2017-04-06T09:57:22.293Z,1265
2017-04-06T09:58:22.365Z,1200
2017-04-06T09:59:22.847Z,1170
2017-04-06T10:00:22.628Z,1085
2017-04-06T10:01:28.289Z,1055
2017-04-06T10:02:22.584Z,1075
2017-04-06T10:03:22.610Z,1075
2017-04-06T10:04:22.634Z,1105
2017-04-06T10:05:22.815Z,755
2017-04-06T10:06:23.157Z,900
2017-04-06T10:07:22.776Z,840
2017-04-06T10:08:23.222Z,840
2017-04-06T10:09:22.853Z,880
2017-04-06T10:10:22.897Z,910
2017-04-06T10:11:23.027Z,870
2017-04-06T10:12:23.138Z,1010
2017-04-06T10:13:23.447Z,1015
2017-04-06T10:14:23.070Z,690
2017-04-06T10:15:23.172Z,975
2017-04-06T10:16:23.181Z,860
2017-04-06T10:17:23.221Z,785
2017-04-06T10:18:23.205Z,780
2017-04-06T10:19:23.675Z,795
2017-04-06T10:20:23.298Z,880
2017-04-06T10:21:23.326Z,900
2017-04-06T10:22:23.431Z,505
2017-04-06T10:23:23.443Z,900
2017-04-06T10:24:23.474Z,865
2017-04-06T10:25:23.587Z,490
2017-04-06T10:26:23.623Z,780
2017-04-06T10:27:23.650Z,855
2017-04-06T10:28:23.662Z,705
2017-04-06T10:29:23.676Z,355
2017-04-06T10:30:23.774Z,790
2017-04-06T10:31:23.836Z,455
2017-04-06T10:32:23.888Z,440
2017-04-06T10:33:24.086Z,820
2017-04-06T10:34:23.943Z,785
2017-04-06T10:35:23.958Z,825
2017-04-06T10:36:24.644Z,460
2017-04-06T10:37:24.043Z,460
2017-04-06T10:38:24.293Z,315
2017-04-06T10:39:24.323Z,310
2017-04-06T10:40:24.154Z,260
2017-04-06T10:41:24.235Z,270
2017-04-06T10:42:24.228Z,700
2017-04-06T10:43:24.224Z,680
2017-04-06T10:44:24.321Z,730
2017-04-06T10:45:24.540Z,820
2017-04-06T10:46:24.347Z,480
2017-04-06T10:47:24.433Z,900
2017-04-06T10:48:24.476Z,640
2017-04-06T10:49:24.468Z,815
2017-04-06T10:50:24.532Z,810
2017-04-06T10:51:24.583Z,820
2017-04-06T10:52:24.629Z,745
2017-04-06T10:53:24.679Z,695
2017-04-06T10:54:24.645Z,700
2017-04-06T10:55:24.886Z,705
2017-04-06T10:56:24.854Z,735
2017-04-06T10:57:24.795Z,785
2017-04-06T10:58:25.263Z,345
2017-04-06T10:59:24.807Z,675
2017-04-06T11:00:24.904Z,640
2017-04-06T11:01:33.465Z,275
2017-04-06T11:02:24.978Z,255
2017-04-06T11:03:25.084Z,605
2017-04-06T11:04:25.458Z,600
2017-04-06T11:05:25.423Z,595
2017-04-06T11:06:25.486Z,555
2017-04-06T11:07:25.122Z,615
2017-04-06T11:08:25.255Z,545
2017-04-06T11:09:25.233Z,300
2017-04-06T11:10:25.293Z,450
2017-04-06T11:11:25.357Z,450
2017-04-06T11:12:25.361Z,285
2017-04-06T11:13:25.364Z,330
2017-04-06T11:14:25.612Z,420
2017-04-06T11:15:25.943Z,255
2017-04-06T11:16:25.478Z,265
2017-04-06T11:17:25.576Z,405
2017-04-06T11:18:25.572Z,400
2017-04-06T11:19:25.602Z,430
2017-04-06T11:20:25.698Z,495
2017-04-06T11:21:25.679Z,460
2017-04-06T11:22:25.721Z,475
2017-04-06T11:23:25.788Z,445
2017-04-06T11:24:25.765Z,365
2017-04-06T11:25:25.774Z,310
2017-04-06T11:26:25.877Z,260
2017-04-06T11:27:25.868Z,305
2017-04-06T11:28:25.993Z,305
2017-04-06T11:29:26.013Z,300
2017-04-06T11:30:26.071Z,350
2017-04-06T11:31:26.015Z,255
2017-04-06T11:32:26.410Z,260
2017-04-06T11:33:26.478Z,245
2017-04-06T11:34:26.320Z,260
2017-04-06T11:35:26.272Z,300
2017-04-06T11:36:26.368Z,255
2017-04-06T11:37:26.239Z,260
2017-04-06T11:38:26.277Z,300
2017-04-06T11:39:26.260Z,370
2017-04-06T11:40:26.324Z,455
2017-04-06T11:41:26.359Z,415
2017-04-06T11:42:26.448Z,370
2017-04-06T11:43:27.067Z,415
2017-04-06T11:44:26.473Z,385
2017-04-06T11:45:26.548Z,345
2017-04-06T11:46:26.551Z,275
2017-04-06T11:47:26.532Z,345
2017-04-06T11:48:26.639Z,485
2017-04-06T11:49:26.736Z,435
2017-04-06T11:50:26.665Z,370
2017-04-06T11:51:26.679Z,305
2017-04-06T11:52:26.762Z,245
2017-04-06T11:53:26.777Z,235
2017-04-06T11:54:26.772Z,305
2017-04-06T11:55:26.846Z,365
2017-04-06T11:56:26.872Z,405
2017-04-06T11:57:27.377Z,395
2017-04-06T11:58:26.970Z,335
2017-04-06T11:59:26.968Z,305
2017-04-06T12:00:27.257Z,290
2017-04-06T12:01:27.240Z,235
2017-04-06T12:02:27.070Z,215
2017-04-06T12:03:27.105Z,235
2017-04-06T12:04:27.147Z,220
2017-04-06T12:05:27.155Z,215
2017-04-06T12:06:27.176Z,220
2017-04-06T12:07:27.282Z,210
2017-04-06T12:08:27.545Z,215
2017-04-06T12:09:27.345Z,240
2017-04-06T12:10:27.791Z,270
2017-04-06T12:11:27.452Z,255
2017-04-06T12:12:27.383Z,250
2017-04-06T12:13:27.446Z,240
2017-04-06T12:14:27.575Z,255
2017-04-06T12:15:27.579Z,275
2017-04-06T12:16:27.519Z,230
2017-04-06T12:17:27.566Z,225
2017-04-06T12:18:27.663Z,245
2017-04-06T12:19:27.674Z,280
2017-04-06T12:20:27.679Z,315
2017-04-06T12:21:27.737Z,330
2017-04-06T12:22:27.781Z,320
2017-04-06T12:23:27.824Z,285
2017-04-06T12:24:27.894Z,325
2017-04-06T12:25:27.893Z,390
2017-04-06T12:26:27.879Z,405
2017-04-06T12:27:28.382Z,380
2017-04-06T12:28:27.974Z,330
2017-04-06T12:29:27.994Z,285
2017-04-06T12:30:28.027Z,290
2017-04-06T12:31:28.024Z,310
2017-04-06T12:32:28.097Z,290
2017-04-06T12:33:28.234Z,325
2017-04-06T12:34:28.193Z,360
2017-04-06T12:35:28.252Z,395
2017-04-06T12:36:28.470Z,375
2017-04-06T12:37:28.270Z,390
2017-04-06T12:38:28.292Z,415
2017-04-06T12:39:28.351Z,430
2017-04-06T12:40:28.346Z,355
2017-04-06T12:41:28.590Z,290
2017-04-06T12:42:28.449Z,255
2017-04-06T12:43:28.460Z,230
2017-04-06T12:44:28.502Z,205
2017-04-06T12:45:28.485Z,200
2017-04-06T12:46:28.530Z,205
2017-04-06T12:47:28.585Z,205
2017-04-06T12:48:28.691Z,215
2017-04-06T12:49:28.745Z,270
2017-04-06T12:50:29.185Z,285
2017-04-06T12:51:29.123Z,265
2017-04-06T12:52:28.803Z,230
2017-04-06T12:53:28.815Z,210
2017-04-06T12:54:28.853Z,210
2017-04-06T12:55:28.898Z,205
2017-04-06T12:56:29.194Z,205
2017-04-06T12:57:28.921Z,215
2017-04-06T12:58:29.000Z,220
2017-04-06T12:59:29.004Z,215
2017-04-06T13:00:29.263Z,205
2017-04-06T13:01:29.071Z,200
2017-04-06T13:02:29.454Z,200
2017-04-06T13:03:29.366Z,215
2017-04-06T13:04:29.212Z,210
2017-04-06T13:05:29.271Z,210
2017-04-06T13:06:29.281Z,225
2017-04-06T13:07:29.240Z,245
2017-04-06T13:08:29.344Z,230
2017-04-06T13:09:29.382Z,210
2017-04-06T13:10:29.385Z,180
2017-04-06T13:11:29.437Z,165
2017-04-06T13:12:29.460Z,185
2017-04-06T13:13:29.494Z,185
2017-04-06T13:14:29.515Z,180
2017-04-06T13:15:29.574Z,185
2017-04-06T13:16:29.582Z,210
2017-04-06T13:17:29.615Z,265
2017-04-06T13:18:29.662Z,295
2017-04-06T13:19:29.664Z,315
2017-04-06T13:20:29.683Z,305
2017-04-06T13:21:29.725Z,330
2017-04-06T13:22:29.764Z,335
2017-04-06T13:23:29.772Z,345
2017-04-06T13:24:29.817Z,315
2017-04-06T13:25:29.890Z,305
2017-04-06T13:26:29.975Z,305
2017-04-06T13:27:29.939Z,300
2017-04-06T13:28:29.965Z,285
2017-04-06T13:29:30.038Z,230
2017-04-06T13:30:30.056Z,210
2017-04-06T13:31:30.070Z,205
2017-04-06T13:32:30.171Z,205
2017-04-06T13:33:30.581Z,205
2017-04-06T13:34:30.164Z,225
2017-04-06T13:35:30.210Z,245
2017-04-06T13:36:30.318Z,230
2017-04-06T13:37:30.276Z,225
2017-04-06T13:38:30.281Z,215
2017-04-06T13:39:30.335Z,195
2017-04-06T13:40:30.356Z,210
2017-04-06T13:41:30.380Z,220
2017-04-06T13:42:30.477Z,260
2017-04-06T13:43:30.466Z,275
2017-04-06T13:44:30.465Z,295
2017-04-06T13:45:30.579Z,305
2017-04-06T13:46:30.582Z,325
2017-04-06T13:47:30.671Z,350
2017-04-06T13:48:30.608Z,360
2017-04-06T13:49:30.674Z,315
2017-04-06T13:50:30.640Z,285
2017-04-06T13:51:30.726Z,255
2017-04-06T13:52:30.781Z,230
2017-04-06T13:53:30.778Z,230
2017-04-06T13:54:30.873Z,225
2017-04-06T13:55:30.949Z,225
2017-04-06T13:56:31.239Z,220
2017-04-06T13:57:30.969Z,205
2017-04-06T13:58:30.941Z,200
2017-04-06T13:59:31.090Z,175